createdAt,value
2022-11-17T00:00:42.815Z,97473.44
2022-11-17T00:03:15.786Z,97480.28
2022-11-17T00:05:44.425Z,97502.50
2022-11-17T00:08:12.333Z,97485.53
2022-11-17T00:10:39.857Z,97484.75
2022-11-17T00:13:28.888Z,97488.59
2022-11-17T00:15:56.415Z,97496.47
2022-11-17T00:18:42.404Z,97479.28
2022-11-17T00:21:23.506Z,97477.06
2022-11-17T00:23:51.192Z,97475.88
2022-11-17T00:26:23.933Z,97483.75
2022-11-17T00:28:56.066Z,97472.63
2022-11-17T00:31:43.941Z,97491.56
2022-11-17T00:34:15.603Z,97485.97
2022-11-17T00:36:46.598Z,97481.50
2022-11-17T00:39:16.434Z,97491.00
2022-11-17T00:41:44.377Z,97480.50
2022-11-17T00:44:12.283Z,97480.31
2022-11-17T00:46:40.785Z,97486.13
2022-11-17T00:49:10.176Z,97473.81
2022-11-17T00:51:38.076Z,97472.41
2022-11-17T00:54:07.475Z,97475.06
2022-11-17T00:56:35.000Z,97472.63
2022-11-17T00:59:02.633Z,97471.63
2022-11-17T01:01:30.475Z,97469.97
2022-11-17T01:04:04.563Z,97465.16
2022-11-17T01:06:35.862Z,97452.59
2022-11-17T01:09:11.228Z,97452.78
2022-11-17T01:11:38.984Z,97452.00
2022-11-17T01:14:06.650Z,97449.78
2022-11-17T01:16:34.124Z,97444.31
2022-11-17T01:19:02.896Z,97440.66
2022-11-17T01:21:31.500Z,97431.56
2022-11-17T01:24:01.117Z,97431.75
2022-11-17T01:26:32.026Z,97439.84
2022-11-17T01:29:01.178Z,97434.38
2022-11-17T01:31:31.060Z,97445.72
2022-11-17T01:33:59.016Z,97443.09
2022-11-17T01:36:56.577Z,97442.50
2022-11-17T01:39:25.400Z,97435.19
2022-11-17T01:41:53.618Z,97439.66
2022-11-17T01:44:36.512Z,97440.03
2022-11-17T01:47:08.135Z,97436.16
2022-11-17T01:49:35.831Z,97447.84
2022-11-17T01:52:07.437Z,97445.84
2022-11-17T01:54:40.389Z,97443.63
2022-11-17T01:57:13.446Z,97451.31
2022-11-17T01:59:48.934Z,97458.75
2022-11-17T02:02:16.866Z,97460.09
2022-11-17T02:04:49.813Z,97462.41
2022-11-17T02:07:23.176Z,97460.69
2022-11-17T02:09:52.792Z,97455.31
2022-11-17T02:12:23.581Z,97460.22
2022-11-17T02:14:51.702Z,97461.44
2022-11-17T02:17:21.605Z,97466.78
2022-11-17T02:20:11.270Z,97458.31
2022-11-17T02:23:10.138Z,97461.50
2022-11-17T02:25:49.821Z,97450.63
2022-11-17T02:28:17.356Z,97443.69
2022-11-17T02:31:06.714Z,97447.00
2022-11-17T02:33:34.469Z,97433.44
2022-11-17T02:36:10.990Z,97431.91
2022-11-17T02:39:10.064Z,97426.47
2022-11-17T02:41:54.288Z,97430.06
2022-11-17T02:44:39.979Z,97433.16
2022-11-17T02:47:23.516Z,97427.47
2022-11-17T02:49:58.974Z,97423.78
2022-11-17T02:52:29.944Z,97414.59
2022-11-17T02:55:02.791Z,97425.19
2022-11-17T02:57:35.208Z,97430.38
2022-11-17T03:00:05.408Z,97434.78
2022-11-17T03:02:57.333Z,97426.50
2022-11-17T03:05:48.856Z,97412.34
2022-11-17T03:08:44.003Z,97412.66
2022-11-17T03:11:11.725Z,97409.28
2022-11-17T03:14:04.541Z,97407.63
2022-11-17T03:16:41.446Z,97393.78
2022-11-17T03:19:19.749Z,97401.47
2022-11-17T03:21:57.341Z,97393.56
2022-11-17T03:24:32.733Z,97389.88
2022-11-17T03:27:07.679Z,97394.94
2022-11-17T03:29:39.000Z,97399.44
2022-11-17T03:32:10.018Z,97406.06
2022-11-17T03:34:44.232Z,97405.28
2022-11-17T03:37:15.532Z,97422.47
2022-11-17T03:39:51.394Z,97431.81
2022-11-17T03:42:30.693Z,97427.63
2022-11-17T03:45:03.355Z,97433.28
2022-11-17T03:47:33.753Z,97443.53
2022-11-17T03:50:09.444Z,97443.00
2022-11-17T03:52:38.077Z,97452.81
2022-11-17T03:55:06.557Z,97447.13
2022-11-17T03:58:05.695Z,97458.47
2022-11-17T04:00:36.705Z,97465.22
2022-11-17T04:03:04.297Z,97459.97
2022-11-17T04:05:31.905Z,97459.03
2022-11-17T04:07:59.413Z,97452.25
2022-11-17T04:10:27.001Z,97446.69
2022-11-17T04:13:13.345Z,97441.13
2022-11-17T04:15:56.304Z,97430.59
2022-11-17T04:18:24.068Z,97438.50
2022-11-17T04:20:54.000Z,97433.38
2022-11-17T04:23:22.564Z,97433.47
2022-11-17T04:26:11.259Z,97446.50
2022-11-17T04:28:47.929Z,97438.28
2022-11-17T04:31:17.005Z,97435.72
2022-11-17T04:33:46.981Z,97431.88
2022-11-17T04:36:17.470Z,97438.38
2022-11-17T04:38:47.338Z,97443.13
2022-11-17T04:41:34.668Z,97440.03
2022-11-17T04:44:03.155Z,97443.66
2022-11-17T04:46:32.277Z,97456.06
2022-11-17T04:49:00.896Z,97456.50
2022-11-17T04:51:29.770Z,97454.16
2022-11-17T04:53:58.067Z,97449.50
2022-11-17T04:56:26.938Z,97456.47
2022-11-17T04:58:54.967Z,97461.09
2022-11-17T05:01:23.659Z,97469.69
2022-11-17T05:03:56.675Z,97469.81
2022-11-17T05:06:38.008Z,97477.63
2022-11-17T05:09:13.923Z,97475.53
2022-11-17T05:12:01.346Z,97478.44
2022-11-17T05:14:29.720Z,97476.09
2022-11-17T05:17:10.547Z,97476.97
2022-11-17T05:19:47.153Z,97477.03
2022-11-17T05:22:35.896Z,97483.78
2022-11-17T05:25:04.450Z,97482.66
2022-11-17T05:27:33.954Z,97486.53
2022-11-17T05:30:02.661Z,97482.66
2022-11-17T05:32:31.419Z,97479.50
2022-11-17T05:34:59.012Z,97464.06
2022-11-17T05:37:26.636Z,97463.22
2022-11-17T05:39:56.311Z,97460.50
2022-11-17T05:42:23.947Z,97471.88
2022-11-17T05:44:51.467Z,97478.59
2022-11-17T05:47:18.999Z,97488.59
2022-11-17T05:49:46.469Z,97483.38
2022-11-17T05:52:14.051Z,97487.66
2022-11-17T05:54:41.516Z,97487.22
2022-11-17T05:57:14.348Z,97492.94
2022-11-17T05:59:48.605Z,97499.13
2022-11-17T06:02:38.724Z,97503.56
2022-11-17T06:05:06.450Z,97504.69
2022-11-17T06:07:36.805Z,97501.53
2022-11-17T06:10:05.352Z,97498.47
2022-11-17T06:12:32.840Z,97494.50
2022-11-17T06:15:00.304Z,97504.34
2022-11-17T06:17:40.722Z,97502.69
2022-11-17T06:20:28.305Z,97502.63
2022-11-17T06:23:00.532Z,97504.88
2022-11-17T06:25:29.065Z,97500.75
2022-11-17T06:27:58.268Z,97497.31
2022-11-17T06:30:25.836Z,97501.88
2022-11-17T06:32:53.625Z,97496.78
2022-11-17T06:35:21.182Z,97497.31
2022-11-17T06:37:48.760Z,97489.94
2022-11-17T06:40:16.558Z,97494.03
2022-11-17T06:43:02.299Z,97504.50
2022-11-17T06:45:34.285Z,97504.00
2022-11-17T06:48:02.326Z,97511.72
2022-11-17T06:50:29.873Z,97508.00
2022-11-17T06:53:08.536Z,97526.16
2022-11-17T06:55:36.948Z,97520.53
2022-11-17T06:58:07.662Z,97523.41
2022-11-17T07:00:37.109Z,97530.47
2022-11-17T07:03:09.760Z,97522.44
2022-11-17T07:05:40.236Z,97524.31
2022-11-17T07:08:09.594Z,97530.66
2022-11-17T07:10:38.056Z,97522.06
2022-11-17T07:13:05.636Z,97525.84
2022-11-17T07:15:33.233Z,97512.75
2022-11-17T07:18:00.878Z,97516.28
2022-11-17T07:20:28.543Z,97521.09
2022-11-17T07:23:00.210Z,97519.56
2022-11-17T07:25:27.801Z,97524.38
2022-11-17T07:28:00.005Z,97522.44
2022-11-17T07:30:27.815Z,97531.00
2022-11-17T07:32:55.453Z,97520.88
2022-11-17T07:35:22.941Z,97520.84
2022-11-17T07:37:50.597Z,97525.00
2022-11-17T07:40:18.311Z,97525.97
2022-11-17T07:42:49.984Z,97537.34
2022-11-17T07:45:18.133Z,97530.25
2022-11-17T07:47:45.667Z,97539.97
2022-11-17T07:50:15.701Z,97543.22
2022-11-17T07:52:43.212Z,97534.50
2022-11-17T07:55:10.706Z,97536.28
2022-11-17T07:57:38.209Z,97531.91
2022-11-17T08:00:06.306Z,97534.69
2022-11-17T08:02:40.528Z,97538.50
2022-11-17T08:05:08.496Z,97537.75
2022-11-17T08:07:36.057Z,97545.38
2022-11-17T08:10:04.430Z,97540.53
2022-11-17T08:12:31.987Z,97544.06
2022-11-17T08:14:59.490Z,97554.00
2022-11-17T08:17:27.612Z,97557.91
2022-11-17T08:19:56.329Z,97554.50
2022-11-17T08:22:24.168Z,97555.78
2022-11-17T08:24:51.694Z,97557.06
2022-11-17T08:27:19.186Z,97554.81
2022-11-17T08:29:46.713Z,97554.19
2022-11-17T08:32:14.190Z,97559.84
2022-11-17T08:34:41.670Z,97555.78
2022-11-17T08:37:09.468Z,97569.41
2022-11-17T08:39:37.196Z,97571.22
2022-11-17T08:42:04.671Z,97571.41
2022-11-17T08:44:32.193Z,97575.34
2022-11-17T08:46:59.758Z,97578.13
2022-11-17T08:49:27.308Z,97587.50
2022-11-17T08:51:54.837Z,97590.56
2022-11-17T08:54:22.403Z,97589.19
2022-11-17T08:56:50.073Z,97584.09
2022-11-17T08:59:17.648Z,97582.38
2022-11-17T09:01:45.401Z,97582.81
2022-11-17T09:04:13.079Z,97586.31
2022-11-17T09:06:40.606Z,97591.16
2022-11-17T09:09:08.300Z,97595.06
2022-11-17T09:11:35.866Z,97591.13
2022-11-17T09:14:03.723Z,97604.34
2022-11-17T09:16:31.177Z,97599.75
2022-11-17T09:18:59.003Z,97602.97
2022-11-17T09:21:27.686Z,97611.13
2022-11-17T09:23:55.243Z,97610.38
2022-11-17T09:26:22.917Z,97607.97
2022-11-17T09:28:50.558Z,97619.13
2022-11-17T09:31:20.879Z,97614.25
2022-11-17T09:33:48.486Z,97609.03
2022-11-17T09:36:16.971Z,97611.59
2022-11-17T09:38:46.782Z,97597.75
2022-11-17T09:41:40.722Z,97584.56
2022-11-17T09:44:12.486Z,97585.75
2022-11-17T09:46:46.145Z,97584.81
2022-11-17T09:49:53.647Z,97584.34
2022-11-17T09:52:36.192Z,97579.44
2022-11-17T09:55:09.516Z,97580.25
2022-11-17T09:57:48.687Z,97569.16
2022-11-17T10:00:21.214Z,97575.19
2022-11-17T10:02:50.710Z,97584.25
2022-11-17T10:05:28.442Z,97579.19
2022-11-17T10:08:03.513Z,97579.78
2022-11-17T10:10:36.186Z,97573.41
2022-11-17T10:13:06.187Z,97577.06
2022-11-17T10:15:47.287Z,97564.03
2022-11-17T10:18:16.507Z,97569.19
2022-11-17T10:20:45.220Z,97562.56
2022-11-17T10:23:19.005Z,97568.19
2022-11-17T10:25:48.517Z,97568.28
2022-11-17T10:28:32.410Z,97571.47
2022-11-17T10:31:17.845Z,97577.00
2022-11-17T10:33:48.774Z,97573.56
2022-11-17T10:36:23.701Z,97574.72
2022-11-17T10:38:59.229Z,97578.84
2022-11-17T10:41:41.285Z,97583.72
2022-11-17T10:44:29.781Z,97586.56
2022-11-17T10:47:04.143Z,97581.22
2022-11-17T10:49:33.776Z,97583.38
2022-11-17T10:52:16.712Z,97584.47
2022-11-17T10:54:44.804Z,97585.50
2022-11-17T10:57:20.090Z,97590.06
2022-11-17T10:59:57.666Z,97592.22
2022-11-17T11:02:36.455Z,97592.63
2022-11-17T11:05:12.946Z,97584.78
2022-11-17T11:07:41.162Z,97579.06
2022-11-17T11:10:18.822Z,97573.59
2022-11-17T11:12:52.684Z,97573.09
2022-11-17T11:15:24.609Z,97565.25
2022-11-17T11:17:52.507Z,97563.19
2022-11-17T11:20:39.554Z,97571.09
2022-11-17T11:23:20.875Z,97569.41
2022-11-17T11:26:02.135Z,97574.00
2022-11-17T11:28:46.359Z,97572.59
2022-11-17T11:31:41.987Z,97578.09
2022-11-17T11:34:36.709Z,97582.81
2022-11-17T11:37:12.426Z,97584.28
2022-11-17T11:39:59.208Z,97575.63
2022-11-17T11:42:46.479Z,97572.84
2022-11-17T11:45:36.667Z,97566.25
2022-11-17T11:48:09.119Z,97568.13
2022-11-17T11:50:47.418Z,97569.63
2022-11-17T11:53:20.622Z,97568.69
2022-11-17T11:55:50.251Z,97565.00
2022-11-17T11:58:24.728Z,97571.34
2022-11-17T12:01:12.220Z,97575.69
2022-11-17T12:03:58.216Z,97578.13
2022-11-17T12:06:43.922Z,97571.81
2022-11-17T12:09:32.480Z,97572.75
2022-11-17T12:12:06.514Z,97573.31
2022-11-17T12:14:36.794Z,97566.28
2022-11-17T12:17:24.217Z,97569.59
2022-11-17T12:20:09.294Z,97563.09
2022-11-17T12:22:56.584Z,97568.56
2022-11-17T12:25:30.392Z,97573.22
2022-11-17T12:27:58.100Z,97581.41
2022-11-17T12:30:34.769Z,97573.25
2022-11-17T12:33:06.843Z,97580.84
2022-11-17T12:35:36.255Z,97578.34
2022-11-17T12:38:15.618Z,97580.50
2022-11-17T12:40:52.603Z,97579.78
2022-11-17T12:43:27.790Z,97574.38
2022-11-17T12:45:58.276Z,97582.75
2022-11-17T12:48:35.124Z,97577.38
2022-11-17T12:51:18.017Z,97582.22
2022-11-17T12:54:16.128Z,97575.84
2022-11-17T12:57:26.453Z,97570.03
2022-11-17T13:00:22.165Z,97580.34
2022-11-17T13:02:56.130Z,97581.56
2022-11-17T13:05:24.996Z,97577.63
2022-11-17T13:08:10.852Z,97579.94
2022-11-17T13:10:38.422Z,97598.16
2022-11-17T13:13:24.052Z,97596.84
2022-11-17T13:15:54.655Z,97594.47
2022-11-17T13:18:32.204Z,97585.84
2022-11-17T13:21:00.974Z,97591.91
2022-11-17T13:23:31.587Z,97601.88
2022-11-17T13:26:10.633Z,97600.63
2022-11-17T13:28:38.297Z,97611.28
2022-11-17T13:31:06.591Z,97615.75
2022-11-17T13:33:40.019Z,97613.22
2022-11-17T13:36:19.841Z,97619.31
2022-11-17T13:38:51.963Z,97615.03
2022-11-17T13:41:21.856Z,97618.66
2022-11-17T13:43:51.259Z,97616.91
2022-11-17T13:46:19.107Z,97623.66
2022-11-17T13:48:49.154Z,97618.84
2022-11-17T13:51:19.734Z,97620.56
2022-11-17T13:53:52.599Z,97617.44
2022-11-17T13:56:46.179Z,97616.09
2022-11-17T13:59:26.524Z,97619.34
2022-11-17T14:02:29.938Z,97610.34
2022-11-17T14:05:16.792Z,97618.56
2022-11-17T14:07:45.386Z,97617.13
2022-11-17T14:10:13.367Z,97612.63
2022-11-17T14:12:44.747Z,97612.84
2022-11-17T14:15:20.967Z,97600.91
2022-11-17T14:17:50.893Z,97600.00
2022-11-17T14:20:24.415Z,97598.75
2022-11-17T14:23:08.829Z,97598.47
2022-11-17T14:25:53.190Z,97589.75
2022-11-17T14:28:25.497Z,97594.63
2022-11-17T14:30:54.760Z,97600.19
2022-11-17T14:33:23.074Z,97598.47
2022-11-17T14:35:57.063Z,97610.38
2022-11-17T14:38:25.339Z,97610.78
2022-11-17T14:40:53.771Z,97616.56
2022-11-17T14:43:22.530Z,97615.31
2022-11-17T14:45:50.913Z,97615.69
2022-11-17T14:48:19.694Z,97613.31
2022-11-17T14:50:47.824Z,97610.09
2022-11-17T14:53:15.599Z,97614.13
2022-11-17T14:55:43.064Z,97611.41
2022-11-17T14:58:10.649Z,97608.50
2022-11-17T15:00:38.160Z,97605.34
2022-11-17T15:03:05.689Z,97600.44
2022-11-17T15:05:33.684Z,97605.66
2022-11-17T15:08:01.243Z,97599.66
2022-11-17T15:10:28.752Z,97606.97
2022-11-17T15:12:56.348Z,97595.78
2022-11-17T15:15:23.823Z,97602.38
2022-11-17T15:17:51.377Z,97614.19
2022-11-17T15:20:19.041Z,97613.03
2022-11-17T15:22:46.506Z,97612.31
2022-11-17T15:25:14.095Z,97619.88
2022-11-17T15:27:41.560Z,97628.19
2022-11-17T15:30:09.436Z,97622.38
2022-11-17T15:32:37.246Z,97622.16
2022-11-17T15:35:05.322Z,97617.53
2022-11-17T15:37:32.838Z,97609.38
2022-11-17T15:40:00.646Z,97596.63
2022-11-17T15:42:28.158Z,97597.78
2022-11-17T15:44:55.707Z,97594.78
2022-11-17T15:47:23.685Z,97585.03
2022-11-17T15:49:58.436Z,97589.22
2022-11-17T15:52:48.787Z,97593.06
2022-11-17T15:55:13.721Z,97595.47
2022-11-17T15:57:41.299Z,97606.06
2022-11-17T16:00:09.940Z,97607.56
2022-11-17T16:02:37.446Z,97597.53
2022-11-17T16:05:05.495Z,97589.63
2022-11-17T16:07:33.143Z,97587.63
2022-11-17T16:10:00.857Z,97590.56
2022-11-17T16:12:28.361Z,97584.78
2022-11-17T16:14:55.888Z,97583.03
2022-11-17T16:17:23.409Z,97574.75
2022-11-17T16:19:51.684Z,97572.69
2022-11-17T16:22:19.273Z,97568.44
2022-11-17T16:24:46.738Z,97569.25
2022-11-17T16:27:14.333Z,97585.28
2022-11-17T16:29:41.867Z,97594.22
2022-11-17T16:32:09.499Z,97592.63
2022-11-17T16:34:38.527Z,97607.19
2022-11-17T16:37:06.011Z,97613.06
2022-11-17T16:39:33.784Z,97630.09
2022-11-17T16:42:01.648Z,97635.75
2022-11-17T16:44:29.179Z,97639.81
2022-11-17T16:46:56.989Z,97643.84
2022-11-17T16:49:24.770Z,97651.13
2022-11-17T16:51:56.729Z,97647.88
2022-11-17T16:54:24.162Z,97638.56
2022-11-17T16:56:51.740Z,97641.00
2022-11-17T16:59:19.761Z,97645.81
2022-11-17T17:01:47.722Z,97651.91
2022-11-17T17:04:23.511Z,97666.47
2022-11-17T17:06:51.528Z,97664.44
2022-11-17T17:09:24.749Z,97664.47
2022-11-17T17:11:55.306Z,97662.44
2022-11-17T17:14:22.946Z,97664.25
2022-11-17T17:16:51.168Z,97664.03
2022-11-17T17:19:19.155Z,97664.91
2022-11-17T17:21:46.819Z,97651.25
2022-11-17T17:24:14.652Z,97647.13
2022-11-17T17:26:42.542Z,97652.81
2022-11-17T17:29:10.632Z,97662.78
2022-11-17T17:31:40.486Z,97668.88
2022-11-17T17:34:11.525Z,97657.75
2022-11-17T17:36:40.017Z,97647.66
2022-11-17T17:39:08.109Z,97653.38
2022-11-17T17:41:40.981Z,97648.34
2022-11-17T17:44:13.290Z,97654.41
2022-11-17T17:46:42.913Z,97649.78
2022-11-17T17:49:11.898Z,97649.28
2022-11-17T17:51:44.054Z,97651.69
2022-11-17T17:54:19.876Z,97646.56
2022-11-17T17:56:48.252Z,97640.97
2022-11-17T17:59:17.080Z,97641.53
2022-11-17T18:01:46.329Z,97648.19
2022-11-17T18:04:16.223Z,97646.19
2022-11-17T18:06:48.826Z,97653.72
2022-11-17T18:09:19.390Z,97646.97
2022-11-17T18:11:50.344Z,97643.22
2022-11-17T18:14:29.094Z,97632.66
2022-11-17T18:16:56.882Z,97638.72
2022-11-17T18:19:31.371Z,97639.31
2022-11-17T18:22:01.256Z,97635.06
2022-11-17T18:24:29.029Z,97642.66
2022-11-17T18:26:56.843Z,97632.44
2022-11-17T18:29:24.970Z,97629.56
2022-11-17T18:31:52.506Z,97615.81
2022-11-17T18:34:22.927Z,97622.94
2022-11-17T18:36:52.362Z,97618.38
2022-11-17T18:39:21.396Z,97614.78
2022-11-17T18:41:52.267Z,97608.06
2022-11-17T18:44:20.070Z,97608.06
2022-11-17T18:46:48.470Z,97613.75
2022-11-17T18:49:16.804Z,97610.47
2022-11-17T18:51:44.848Z,97606.06
2022-11-17T18:54:13.095Z,97612.94
2022-11-17T18:56:41.045Z,97614.72
2022-11-17T18:59:11.934Z,97624.69
2022-11-17T19:01:41.760Z,97614.88
2022-11-17T19:04:11.725Z,97624.22
2022-11-17T19:06:39.609Z,97627.88
2022-11-17T19:09:08.258Z,97628.53
2022-11-17T19:11:36.016Z,97619.09
2022-11-17T19:14:07.007Z,97612.78
2022-11-17T19:16:41.030Z,97613.75
2022-11-17T19:19:13.463Z,97615.19
2022-11-17T19:21:42.203Z,97600.81
2022-11-17T19:24:09.908Z,97606.53
2022-11-17T19:26:37.728Z,97611.16
2022-11-17T19:29:15.668Z,97599.81
2022-11-17T19:31:47.625Z,97601.84
2022-11-17T19:34:16.089Z,97607.97
2022-11-17T19:36:45.282Z,97611.75
2022-11-17T19:39:14.165Z,97616.44
2022-11-17T19:41:43.708Z,97594.97
2022-11-17T19:44:11.488Z,97591.94
2022-11-17T19:46:39.405Z,97596.97
2022-11-17T19:49:08.084Z,97584.59
2022-11-17T19:51:37.244Z,97590.09
2022-11-17T19:54:07.863Z,97591.91
2022-11-17T19:56:36.220Z,97577.16
2022-11-17T19:59:05.078Z,97591.06
2022-11-17T20:01:33.886Z,97592.44
2022-11-17T20:04:01.744Z,97591.88
2022-11-17T20:06:35.361Z,97603.38
2022-11-17T20:09:08.747Z,97596.09
2022-11-17T20:11:36.995Z,97601.81
2022-11-17T20:14:07.315Z,97578.03
2022-11-17T20:16:36.787Z,97561.41
2022-11-17T20:19:05.016Z,97576.13
2022-11-17T20:21:33.615Z,97602.28
2022-11-17T20:24:02.142Z,97606.56
2022-11-17T20:26:32.050Z,97601.94
2022-11-17T20:29:05.327Z,97602.72
2022-11-17T20:31:35.560Z,97608.44
2022-11-17T20:34:05.484Z,97617.13
2022-11-17T20:36:34.417Z,97617.09
2022-11-17T20:39:05.967Z,97621.97
2022-11-17T20:41:33.847Z,97628.06
2022-11-17T20:44:03.188Z,97635.75
2022-11-17T20:46:31.217Z,97650.91
2022-11-17T20:48:59.038Z,97640.41
2022-11-17T20:51:27.066Z,97626.25
2022-11-17T20:53:55.613Z,97616.88
2022-11-17T20:56:23.335Z,97611.88
2022-11-17T20:58:50.927Z,97596.22
2022-11-17T21:01:21.281Z,97618.34
2022-11-17T21:03:49.654Z,97611.06
2022-11-17T21:06:18.195Z,97616.50
2022-11-17T21:08:46.167Z,97595.84
2022-11-17T21:11:36.693Z,97604.97
2022-11-17T21:14:07.488Z,97609.03
2022-11-17T21:16:37.300Z,97616.91
2022-11-17T21:19:04.996Z,97605.34
2022-11-17T21:21:32.749Z,97603.06
2022-11-17T21:24:00.672Z,97601.00
2022-11-17T21:26:28.507Z,97611.97
2022-11-17T21:28:59.372Z,97620.69
2022-11-17T21:31:31.985Z,97624.56
2022-11-17T21:34:02.249Z,97623.31
2022-11-17T21:36:31.489Z,97620.28
2022-11-17T21:38:59.883Z,97620.28
2022-11-17T21:41:35.363Z,97615.59
2022-11-17T21:44:03.935Z,97608.72
2022-11-17T21:46:33.569Z,97600.63
2022-11-17T21:49:01.627Z,97599.59
2022-11-17T21:51:34.593Z,97595.41
2022-11-17T21:54:04.480Z,97606.09
2022-11-17T21:56:32.681Z,97596.81
2022-11-17T21:59:06.021Z,97598.03
2022-11-17T22:01:35.351Z,97600.84
2022-11-17T22:04:03.007Z,97607.31
2022-11-17T22:06:30.789Z,97601.25
2022-11-17T22:08:59.655Z,97605.69
2022-11-17T22:11:36.147Z,97604.69
2022-11-17T22:14:06.601Z,97610.66
2022-11-17T22:16:36.191Z,97601.00
2022-11-17T22:19:04.529Z,97599.19
2022-11-17T22:21:32.166Z,97598.97
2022-11-17T22:23:59.884Z,97595.50
2022-11-17T22:26:27.431Z,97586.56
2022-11-17T22:28:56.171Z,97588.59
2022-11-17T22:31:24.270Z,97576.88
2022-11-17T22:33:52.011Z,97577.09
2022-11-17T22:36:20.021Z,97585.13
2022-11-17T22:38:51.335Z,97573.81
2022-11-17T22:41:20.872Z,97572.56
2022-11-17T22:43:56.267Z,97585.91
2022-11-17T22:46:28.507Z,97573.34
2022-11-17T22:48:56.843Z,97569.31
2022-11-17T22:51:43.734Z,97579.25
2022-11-17T22:54:11.452Z,97577.94
2022-11-17T22:56:39.338Z,97571.31
2022-11-17T22:59:07.740Z,97561.88
2022-11-17T23:01:35.303Z,97563.28
2022-11-17T23:04:02.966Z,97566.66
2022-11-17T23:06:30.489Z,97561.00
2022-11-17T23:08:58.359Z,97571.69
2022-11-17T23:11:41.836Z,97564.56
2022-11-17T23:14:12.386Z,97568.56
2022-11-17T23:16:39.963Z,97563.25
2022-11-17T23:19:11.188Z,97554.22
2022-11-17T23:21:38.670Z,97552.59
2022-11-17T23:24:06.687Z,97556.16
2022-11-17T23:26:34.126Z,97564.53
2022-11-17T23:29:01.714Z,97566.97
2022-11-17T23:31:29.497Z,97568.78
2022-11-17T23:33:57.091Z,97567.78
2022-11-17T23:36:24.979Z,97570.81
2022-11-17T23:38:55.294Z,97569.88
2022-11-17T23:41:23.057Z,97564.09
2022-11-17T23:43:52.575Z,97567.25
2022-11-17T23:46:23.043Z,97570.28
2022-11-17T23:48:50.633Z,97562.69
2022-11-17T23:51:24.328Z,97556.03
2022-11-17T23:53:52.879Z,97550.69
2022-11-17T23:56:20.859Z,97560.47
2022-11-17T23:58:48.783Z,97554.78
